createdAt,value
2022-10-18T00:00:17.925Z,16.83
2022-10-18T00:02:44.588Z,16.84
2022-10-18T00:05:11.389Z,16.83
2022-10-18T00:07:38.033Z,16.81
2022-10-18T00:10:05.844Z,16.78
2022-10-18T00:12:34.694Z,16.80
2022-10-18T00:15:01.796Z,16.80
2022-10-18T00:17:28.601Z,16.76
2022-10-18T00:19:55.338Z,16.78
2022-10-18T00:22:22.204Z,16.80
2022-10-18T00:24:52.849Z,16.75
2022-10-18T00:27:19.513Z,16.79
2022-10-18T00:29:46.187Z,16.80
2022-10-18T00:32:12.797Z,16.76
2022-10-18T00:34:40.234Z,16.75
2022-10-18T00:37:06.840Z,16.70
2022-10-18T00:39:33.630Z,16.72
2022-10-18T00:42:00.178Z,16.71
2022-10-18T00:44:26.610Z,16.80
2022-10-18T00:46:58.471Z,16.81
2022-10-18T00:49:34.183Z,16.89
2022-10-18T00:52:06.631Z,16.91
2022-10-18T00:54:35.881Z,16.93
2022-10-18T00:57:02.672Z,16.96
2022-10-18T00:59:29.736Z,16.95
2022-10-18T01:01:56.813Z,16.95
2022-10-18T01:04:23.949Z,16.98
2022-10-18T01:07:25.954Z,16.96
2022-10-18T01:09:58.706Z,17.02
2022-10-18T01:12:46.684Z,16.99
2022-10-18T01:15:18.342Z,17.02
2022-10-18T01:17:52.227Z,17.04
2022-10-18T01:20:37.270Z,17.06
2022-10-18T01:23:11.588Z,17.04
2022-10-18T01:26:17.479Z,17.04
2022-10-18T01:29:32.415Z,17.02
2022-10-18T01:32:03.828Z,17.01
2022-10-18T01:34:34.695Z,16.97
2022-10-18T01:37:04.902Z,16.91
2022-10-18T01:39:41.465Z,16.96
2022-10-18T01:42:11.562Z,16.98
2022-10-18T01:44:40.900Z,16.92
2022-10-18T01:47:10.817Z,16.86
2022-10-18T01:49:37.401Z,16.78
2022-10-18T01:52:04.500Z,16.73
2022-10-18T01:54:36.609Z,16.69
2022-10-18T01:57:22.309Z,16.59
2022-10-18T02:00:05.569Z,16.56
2022-10-18T02:02:51.173Z,16.55
2022-10-18T02:05:31.847Z,16.47
2022-10-18T02:08:22.883Z,16.44
2022-10-18T02:10:55.692Z,16.43
2022-10-18T02:13:25.656Z,16.48
2022-10-18T02:15:58.226Z,16.46
2022-10-18T02:18:33.168Z,16.44
2022-10-18T02:21:03.459Z,16.50
2022-10-18T02:23:32.436Z,16.52
2022-10-18T02:25:59.190Z,16.53
2022-10-18T02:28:26.534Z,16.57
2022-10-18T02:31:05.464Z,16.52
2022-10-18T02:33:54.058Z,16.58
2022-10-18T02:36:42.277Z,16.60
2022-10-18T02:39:15.019Z,16.62
2022-10-18T02:41:41.928Z,16.65
2022-10-18T02:44:09.596Z,16.63
2022-10-18T02:46:36.974Z,16.62
2022-10-18T02:49:03.612Z,16.62
2022-10-18T02:51:30.338Z,16.60
2022-10-18T02:53:56.975Z,16.59
2022-10-18T02:56:24.094Z,16.66
2022-10-18T02:58:50.658Z,16.62
2022-10-18T03:01:17.627Z,16.66
2022-10-18T03:03:44.233Z,16.69
2022-10-18T03:06:10.915Z,16.68
2022-10-18T03:08:38.244Z,16.72
2022-10-18T03:11:04.899Z,16.63
2022-10-18T03:13:31.548Z,16.64
2022-10-18T03:15:58.695Z,16.63
2022-10-18T03:18:25.513Z,16.64
2022-10-18T03:20:52.255Z,16.74
2022-10-18T03:23:18.761Z,16.75
2022-10-18T03:25:46.450Z,16.73
2022-10-18T03:28:13.292Z,16.70
2022-10-18T03:30:39.880Z,16.64
2022-10-18T03:33:07.112Z,16.64
2022-10-18T03:35:34.047Z,16.61
2022-10-18T03:38:00.705Z,16.61
2022-10-18T03:40:27.354Z,16.56
2022-10-18T03:42:53.886Z,16.54
2022-10-18T03:45:20.612Z,16.51
2022-10-18T03:47:47.351Z,16.45
2022-10-18T03:50:15.265Z,16.41
2022-10-18T03:52:41.923Z,16.39
2022-10-18T03:55:08.809Z,16.24
2022-10-18T03:57:35.477Z,16.20
2022-10-18T04:00:02.945Z,16.19
2022-10-18T04:02:38.835Z,16.18
2022-10-18T04:05:07.746Z,16.14
2022-10-18T04:10:03.757Z,16.10
2022-10-18T04:12:30.609Z,16.01
2022-10-18T04:14:57.298Z,15.95
2022-10-18T04:17:24.272Z,15.88
2022-10-18T04:19:50.926Z,15.84
2022-10-18T04:22:17.563Z,15.74
2022-10-18T04:24:44.304Z,15.64
2022-10-18T04:27:10.942Z,15.61
2022-10-18T04:29:37.595Z,15.55
2022-10-18T04:32:05.289Z,15.64
2022-10-18T04:34:32.079Z,15.63
2022-10-18T04:36:58.937Z,15.52
2022-10-18T04:39:25.524Z,15.45
2022-10-18T04:41:52.076Z,15.44
2022-10-18T04:44:18.743Z,15.46
2022-10-18T04:46:45.286Z,15.44
2022-10-18T04:49:12.152Z,15.30
2022-10-18T04:51:38.681Z,15.25
2022-10-18T04:54:05.642Z,15.26
2022-10-18T04:56:33.093Z,15.20
2022-10-18T04:58:59.957Z,15.16
2022-10-18T05:01:26.586Z,15.23
2022-10-18T05:03:54.347Z,15.20
2022-10-18T05:06:22.695Z,15.19
2022-10-18T05:08:49.874Z,15.22
2022-10-18T05:11:16.610Z,15.24
2022-10-18T05:13:45.966Z,15.19
2022-10-18T05:16:16.054Z,15.14
2022-10-18T05:18:43.320Z,15.08
2022-10-18T05:21:10.669Z,14.99
2022-10-18T05:23:37.223Z,15.04
2022-10-18T05:26:07.374Z,15.14
2022-10-18T05:28:39.582Z,15.18
2022-10-18T05:31:09.433Z,15.16
2022-10-18T05:33:36.496Z,15.10
2022-10-18T05:36:03.966Z,15.01
2022-10-18T05:38:31.147Z,14.98
2022-10-18T05:40:59.067Z,14.94
2022-10-18T05:43:28.999Z,14.98
2022-10-18T05:45:56.257Z,14.93
2022-10-18T05:48:22.899Z,14.79
2022-10-18T05:50:49.822Z,14.83
2022-10-18T05:53:35.858Z,14.88
2022-10-18T05:56:03.490Z,14.82
2022-10-18T05:58:30.049Z,14.79
2022-10-18T06:01:01.082Z,14.85
2022-10-18T06:03:28.367Z,14.90
2022-10-18T06:06:01.406Z,14.80
2022-10-18T06:08:28.255Z,14.91
2022-10-18T06:10:55.066Z,15.00
2022-10-18T06:13:22.367Z,14.89
2022-10-18T06:15:49.255Z,14.80
2022-10-18T06:18:16.001Z,14.68
2022-10-18T06:20:42.809Z,14.66
2022-10-18T06:23:09.448Z,14.70
2022-10-18T06:25:35.962Z,14.74
2022-10-18T06:28:07.770Z,14.75
2022-10-18T06:30:37.046Z,14.62
2022-10-18T06:33:04.003Z,14.70
2022-10-18T06:35:30.597Z,14.55
2022-10-18T06:37:57.600Z,14.83
2022-10-18T06:40:24.494Z,14.98
2022-10-18T06:43:00.231Z,15.06
2022-10-18T06:45:33.393Z,15.02
2022-10-18T06:48:00.053Z,14.91
2022-10-18T06:50:26.681Z,14.90
2022-10-18T06:52:53.193Z,14.94
2022-10-18T06:55:19.785Z,15.04
2022-10-18T06:57:46.581Z,15.05
2022-10-18T07:00:14.039Z,15.06
2022-10-18T07:02:41.333Z,15.04
2022-10-18T07:05:09.231Z,15.02
2022-10-18T07:07:36.141Z,15.02
2022-10-18T07:10:04.383Z,15.11
2022-10-18T07:12:32.085Z,15.19
2022-10-18T07:14:58.707Z,15.20
2022-10-18T07:17:26.027Z,15.29
2022-10-18T07:19:52.699Z,15.21
2022-10-18T07:22:19.324Z,15.17
2022-10-18T07:24:45.962Z,15.20
2022-10-18T07:27:12.776Z,15.24
2022-10-18T07:29:39.666Z,15.21
2022-10-18T07:32:06.396Z,15.18
2022-10-18T07:34:33.120Z,15.19
2022-10-18T07:37:02.139Z,15.19
2022-10-18T07:39:28.744Z,15.20
2022-10-18T07:41:55.334Z,15.15
2022-10-18T07:44:22.101Z,15.21
2022-10-18T07:46:48.718Z,15.17
2022-10-18T07:49:15.415Z,15.19
2022-10-18T07:51:42.024Z,15.27
2022-10-18T07:54:08.880Z,15.36
2022-10-18T07:56:35.557Z,15.43
2022-10-18T07:59:02.136Z,15.44
2022-10-18T08:01:28.885Z,15.56
2022-10-18T08:03:55.525Z,15.57
2022-10-18T08:06:23.325Z,15.64
2022-10-18T08:08:50.517Z,15.73
2022-10-18T08:11:20.481Z,15.74
2022-10-18T08:13:47.302Z,15.81
2022-10-18T08:16:17.633Z,15.81
2022-10-18T08:18:44.279Z,15.93
2022-10-18T08:21:12.355Z,15.89
2022-10-18T08:23:39.966Z,15.87
2022-10-18T08:26:15.278Z,15.95
2022-10-18T08:28:49.084Z,16.01
2022-10-18T08:31:25.565Z,16.03
2022-10-18T08:33:52.449Z,16.07
2022-10-18T08:36:19.788Z,16.10
2022-10-18T08:38:46.557Z,16.07
2022-10-18T08:41:32.986Z,16.15
2022-10-18T08:44:24.717Z,16.22
2022-10-18T08:46:55.837Z,16.21
2022-10-18T08:49:28.898Z,16.18
2022-10-18T08:51:57.582Z,16.28
2022-10-18T08:54:30.651Z,16.22
2022-10-18T08:57:04.370Z,16.35
2022-10-18T08:59:41.451Z,16.50
2022-10-18T09:02:30.856Z,16.41
2022-10-18T09:05:13.928Z,16.41
2022-10-18T09:08:09.626Z,16.56
2022-10-18T09:10:53.643Z,16.56
2022-10-18T09:13:36.271Z,16.68
2022-10-18T09:16:06.034Z,16.73
2022-10-18T09:18:41.869Z,16.73
2022-10-18T09:21:11.837Z,16.75
2022-10-18T09:23:51.407Z,16.85
2022-10-18T09:26:23.462Z,16.88
2022-10-18T09:29:11.009Z,16.94
2022-10-18T09:31:50.527Z,16.95
2022-10-18T09:34:30.277Z,17.06
2022-10-18T09:36:57.267Z,17.26
2022-10-18T09:39:33.527Z,17.21
2022-10-18T09:42:13.055Z,17.37
2022-10-18T09:44:44.342Z,17.49
2022-10-18T09:47:26.450Z,17.45
2022-10-18T09:50:02.334Z,17.45
2022-10-18T09:52:42.659Z,17.40
2022-10-18T09:55:30.778Z,17.50
2022-10-18T09:58:01.897Z,17.59
2022-10-18T10:00:34.445Z,17.62
2022-10-18T10:03:02.197Z,17.61
2022-10-18T10:05:28.845Z,17.62
2022-10-18T10:08:00.057Z,17.64
2022-10-18T10:10:28.782Z,17.69
2022-10-18T10:13:15.920Z,17.75
2022-10-18T10:15:52.299Z,17.93
2022-10-18T10:18:21.146Z,18.02
2022-10-18T10:20:52.174Z,18.05
2022-10-18T10:23:21.745Z,18.03
2022-10-18T10:25:58.575Z,18.00
2022-10-18T10:28:33.973Z,18.20
2022-10-18T10:31:19.303Z,18.13
2022-10-18T10:33:47.615Z,18.14
2022-10-18T10:36:20.647Z,18.20
2022-10-18T10:39:18.770Z,18.14
2022-10-18T10:41:49.704Z,18.18
2022-10-18T10:44:18.931Z,18.23
2022-10-18T10:46:46.687Z,18.14
2022-10-18T10:49:41.512Z,18.13
2022-10-18T10:52:26.891Z,18.10
2022-10-18T10:55:23.629Z,18.36
2022-10-18T10:57:55.399Z,18.47
2022-10-18T11:00:34.108Z,18.48
2022-10-18T11:03:31.181Z,18.43
2022-10-18T11:06:00.700Z,18.30
2022-10-18T11:08:41.466Z,18.21
2022-10-18T11:11:26.797Z,18.36
2022-10-18T11:14:26.296Z,18.36
2022-10-18T11:17:26.442Z,18.50
2022-10-18T11:20:15.093Z,18.36
2022-10-18T11:22:49.774Z,18.48
2022-10-18T11:25:17.948Z,18.62
2022-10-18T11:28:10.714Z,18.41
2022-10-18T11:31:18.866Z,18.62
2022-10-18T11:34:23.136Z,18.73
2022-10-18T11:36:56.458Z,18.74
2022-10-18T11:40:08.365Z,18.76
2022-10-18T11:42:50.078Z,18.73
2022-10-18T11:45:38.497Z,18.80
2022-10-18T11:48:42.559Z,18.76
2022-10-18T11:51:34.060Z,18.91
2022-10-18T11:54:23.639Z,19.00
2022-10-18T11:57:06.635Z,18.95
2022-10-18T11:59:49.734Z,18.97
2022-10-18T12:02:35.478Z,19.10
2022-10-18T12:05:23.440Z,19.07
2022-10-18T12:08:00.796Z,19.03
2022-10-18T12:10:46.043Z,19.02
2022-10-18T12:13:29.463Z,19.06
2022-10-18T12:15:56.618Z,19.10
2022-10-18T12:18:25.932Z,19.05
2022-10-18T12:20:58.712Z,18.93
2022-10-18T12:23:52.798Z,19.09
2022-10-18T12:26:20.765Z,19.05
2022-10-18T12:29:00.953Z,19.21
2022-10-18T12:31:35.332Z,19.27
2022-10-18T12:34:25.115Z,19.40
2022-10-18T12:37:06.879Z,19.30
2022-10-18T12:39:43.924Z,19.21
2022-10-18T12:42:18.767Z,19.34
2022-10-18T12:44:46.565Z,19.37
2022-10-18T12:47:23.690Z,19.21
2022-10-18T12:50:03.367Z,19.14
2022-10-18T12:52:34.561Z,19.23
2022-10-18T12:55:03.883Z,19.25
2022-10-18T12:57:58.323Z,19.31
2022-10-18T13:00:31.120Z,19.35
2022-10-18T13:03:12.419Z,19.39
2022-10-18T13:05:53.937Z,19.48
2022-10-18T13:08:27.217Z,19.45
2022-10-18T13:11:12.035Z,19.31
2022-10-18T13:14:09.693Z,19.38
2022-10-18T13:16:54.222Z,19.20
2022-10-18T13:19:30.422Z,19.14
2022-10-18T13:22:09.295Z,19.15
2022-10-18T13:25:07.320Z,19.20
2022-10-18T13:27:52.963Z,19.28
2022-10-18T13:30:31.933Z,19.36
2022-10-18T13:33:34.942Z,19.33
2022-10-18T13:36:22.483Z,19.26
2022-10-18T13:39:03.769Z,19.19
2022-10-18T13:41:35.393Z,19.19
2022-10-18T13:44:40.363Z,19.09
2022-10-18T13:47:07.284Z,19.18
2022-10-18T13:49:40.360Z,19.38
2022-10-18T13:52:25.267Z,19.39
2022-10-18T13:55:29.792Z,19.40
2022-10-18T13:58:18.977Z,19.36
2022-10-18T14:00:58.691Z,19.34
2022-10-18T14:03:56.446Z,19.32
2022-10-18T14:06:35.230Z,19.22
2022-10-18T14:09:25.655Z,19.13
2022-10-18T14:12:08.791Z,19.10
2022-10-18T14:14:38.519Z,19.21
2022-10-18T14:17:16.837Z,19.06
2022-10-18T14:20:14.534Z,18.98
2022-10-18T14:23:15.547Z,19.09
2022-10-18T14:25:42.642Z,18.96
2022-10-18T14:28:13.615Z,18.95
2022-10-18T14:30:58.962Z,18.95
2022-10-18T14:33:35.209Z,19.00
2022-10-18T14:36:11.640Z,19.04
2022-10-18T14:39:01.032Z,18.95
2022-10-18T14:41:29.131Z,18.93
2022-10-18T14:44:14.380Z,19.01
2022-10-18T14:46:49.073Z,18.88
2022-10-18T14:49:16.836Z,18.91
2022-10-18T14:51:46.370Z,18.85
2022-10-18T14:54:32.472Z,18.81
2022-10-18T14:57:01.181Z,18.76
2022-10-18T14:59:30.865Z,18.79
2022-10-18T15:02:12.706Z,18.82
2022-10-18T15:04:39.418Z,18.72
2022-10-18T15:07:13.459Z,18.57
2022-10-18T15:09:40.440Z,18.55
2022-10-18T15:12:08.077Z,18.54
2022-10-18T15:14:35.543Z,18.54
2022-10-18T15:17:08.424Z,18.52
2022-10-18T15:19:40.406Z,18.46
2022-10-18T15:25:14.981Z,18.41
2022-10-18T15:28:03.279Z,18.38
2022-10-18T15:30:40.960Z,18.36
2022-10-18T15:33:22.592Z,18.32
2022-10-18T15:35:51.014Z,18.27
2022-10-18T15:38:26.742Z,18.21
2022-10-18T15:40:54.515Z,18.19
2022-10-18T15:43:49.517Z,18.14
2022-10-18T15:46:32.058Z,18.05
2022-10-18T15:49:24.675Z,18.05
2022-10-18T15:52:33.793Z,17.97
2022-10-18T15:55:22.143Z,17.95
2022-10-18T15:57:49.308Z,17.79
2022-10-18T16:00:20.165Z,17.72
2022-10-18T16:02:46.983Z,17.68
2022-10-18T16:05:18.628Z,17.64
2022-10-18T16:07:45.364Z,17.41
2022-10-18T16:10:13.833Z,17.32
2022-10-18T16:12:40.945Z,17.38
2022-10-18T16:15:08.497Z,17.32
2022-10-18T16:17:36.024Z,17.33
2022-10-18T16:20:03.871Z,17.24
2022-10-18T16:22:32.281Z,17.14
2022-10-18T16:25:01.409Z,17.03
2022-10-18T16:27:27.996Z,16.94
2022-10-18T16:29:54.658Z,17.12
2022-10-18T16:32:21.481Z,17.08
2022-10-18T16:34:48.169Z,17.03
2022-10-18T16:37:14.757Z,16.93
2022-10-18T16:39:41.311Z,16.87
2022-10-18T16:42:07.955Z,16.78
2022-10-18T16:44:34.943Z,16.66
2022-10-18T16:47:01.700Z,16.48
2022-10-18T16:49:28.695Z,16.35
2022-10-18T16:51:55.393Z,16.23
2022-10-18T16:54:22.880Z,16.11
2022-10-18T16:56:50.276Z,16.15
2022-10-18T16:59:28.947Z,15.96
2022-10-18T17:01:55.860Z,15.77
2022-10-18T17:04:22.941Z,15.75
2022-10-18T17:06:58.339Z,15.70
2022-10-18T17:09:25.097Z,15.62
2022-10-18T17:11:51.889Z,15.49
2022-10-18T17:14:18.615Z,15.48
2022-10-18T17:16:47.030Z,15.40
2022-10-18T17:19:17.390Z,15.60
2022-10-18T17:21:43.927Z,15.47
2022-10-18T17:24:11.228Z,15.38
2022-10-18T17:26:37.848Z,15.28
2022-10-18T17:29:08.203Z,15.15
2022-10-18T17:31:35.803Z,15.13
2022-10-18T17:34:02.795Z,15.05
2022-10-18T17:36:31.428Z,14.99
2022-10-18T17:38:58.972Z,14.89
2022-10-18T17:41:26.144Z,14.74
2022-10-18T17:43:52.739Z,14.61
2022-10-18T17:46:20.201Z,14.49
2022-10-18T17:48:47.052Z,14.42
2022-10-18T17:51:16.314Z,14.35
2022-10-18T17:53:43.356Z,14.44
2022-10-18T17:56:10.983Z,14.55
2022-10-18T17:58:37.729Z,14.42
2022-10-18T18:01:11.645Z,14.32
2022-10-18T18:03:38.596Z,14.20
2022-10-18T18:06:15.582Z,14.07
2022-10-18T18:08:42.256Z,14.02
2022-10-18T18:11:09.077Z,14.11
2022-10-18T18:13:35.644Z,13.96
2022-10-18T18:16:24.418Z,13.98
2022-10-18T18:18:53.781Z,13.90
2022-10-18T18:21:21.286Z,13.81
2022-10-18T18:23:48.942Z,13.77
2022-10-18T18:26:16.335Z,13.74
2022-10-18T18:28:43.276Z,13.72
2022-10-18T18:31:12.453Z,13.74
2022-10-18T18:33:39.086Z,13.74
2022-10-18T18:36:06.956Z,13.76
2022-10-18T18:38:35.270Z,13.73
2022-10-18T18:41:03.890Z,13.74
2022-10-18T18:43:30.674Z,13.70
2022-10-18T18:45:57.567Z,13.65
2022-10-18T18:48:26.108Z,13.53
2022-10-18T18:50:53.033Z,13.49
2022-10-18T18:53:20.151Z,13.40
2022-10-18T18:55:47.715Z,13.40
2022-10-18T18:58:14.567Z,13.41
2022-10-18T19:00:44.464Z,13.43
2022-10-18T19:03:12.324Z,13.43
2022-10-18T19:05:39.083Z,13.36
2022-10-18T19:08:06.268Z,13.43
2022-10-18T19:10:33.102Z,13.31
2022-10-18T19:12:59.869Z,13.15
2022-10-18T19:15:26.571Z,13.06
2022-10-18T19:17:53.114Z,13.11
2022-10-18T19:20:19.856Z,13.18
2022-10-18T19:22:46.455Z,13.14
2022-10-18T19:25:13.569Z,13.19
2022-10-18T19:27:40.168Z,13.16
2022-10-18T19:30:09.624Z,13.15
2022-10-18T19:32:36.337Z,13.09
2022-10-18T19:35:03.875Z,13.10
2022-10-18T19:37:31.023Z,12.99
2022-10-18T19:39:59.419Z,12.93
2022-10-18T19:42:31.685Z,12.98
2022-10-18T19:45:00.925Z,12.80
2022-10-18T19:47:27.501Z,12.76
2022-10-18T19:49:54.098Z,12.83
2022-10-18T19:52:20.730Z,12.88
2022-10-18T19:54:51.155Z,12.91
2022-10-18T19:57:17.775Z,12.86
2022-10-18T19:59:44.626Z,12.82
2022-10-18T20:02:17.424Z,12.80
2022-10-18T20:04:46.724Z,12.74
2022-10-18T20:07:13.447Z,12.69
2022-10-18T20:09:40.392Z,12.72
2022-10-18T20:12:07.154Z,12.46
2022-10-18T20:14:34.021Z,12.44
2022-10-18T20:17:01.276Z,12.50
2022-10-18T20:19:34.227Z,12.41
2022-10-18T20:22:01.098Z,12.42
2022-10-18T20:24:30.449Z,12.28
2022-10-18T20:26:57.110Z,12.19
2022-10-18T20:29:25.375Z,12.19
2022-10-18T20:31:55.485Z,12.19
2022-10-18T20:34:25.893Z,12.05
2022-10-18T20:36:56.012Z,12.06
2022-10-18T20:39:22.870Z,12.07
2022-10-18T20:41:50.073Z,12.03
2022-10-18T20:44:19.316Z,11.91
2022-10-18T20:46:47.045Z,11.73
2022-10-18T20:49:15.918Z,11.75
2022-10-18T20:51:42.869Z,11.75
2022-10-18T20:54:10.000Z,11.61
2022-10-18T20:56:38.645Z,11.62
2022-10-18T20:59:09.351Z,11.62
2022-10-18T21:01:37.770Z,11.53
2022-10-18T21:04:06.945Z,11.51
2022-10-18T21:06:36.725Z,11.42
2022-10-18T21:09:10.759Z,11.48
2022-10-18T21:11:40.870Z,11.34
2022-10-18T21:14:12.510Z,11.38
2022-10-18T21:16:40.699Z,11.31
2022-10-18T21:19:11.667Z,11.15
2022-10-18T21:21:38.979Z,11.17
2022-10-18T21:24:07.867Z,11.02
2022-10-18T21:26:35.726Z,10.96
2022-10-18T21:29:04.594Z,10.96
2022-10-18T21:31:34.893Z,10.93
2022-10-18T21:34:15.577Z,10.96
2022-10-18T21:36:44.914Z,10.90
2022-10-18T21:39:17.770Z,10.89
2022-10-18T21:41:45.365Z,10.75
2022-10-18T21:44:12.565Z,10.72
2022-10-18T21:46:40.330Z,10.61
2022-10-18T21:49:07.963Z,10.67
2022-10-18T21:51:36.449Z,10.59
2022-10-18T21:54:03.238Z,10.48
2022-10-18T21:56:34.389Z,10.57
2022-10-18T21:59:04.856Z,10.58
2022-10-18T22:01:37.103Z,10.50
2022-10-18T22:04:06.765Z,10.51
2022-10-18T22:09:10.080Z,10.42
2022-10-18T22:11:45.561Z,10.34
2022-10-18T22:14:12.555Z,10.16
2022-10-18T22:16:39.608Z,10.05
2022-10-18T22:19:07.418Z,9.86
2022-10-18T22:21:35.127Z,9.74
2022-10-18T22:24:08.167Z,9.76
2022-10-18T22:26:37.691Z,9.75
2022-10-18T22:29:18.423Z,9.70
2022-10-18T22:31:51.926Z,9.73
2022-10-18T22:34:21.317Z,9.86
2022-10-18T22:36:48.289Z,9.92
2022-10-18T22:39:15.550Z,9.95
2022-10-18T22:41:42.808Z,10.02
2022-10-18T22:44:12.304Z,9.93
2022-10-18T22:46:39.892Z,9.88
2022-10-18T22:49:07.047Z,9.65
2022-10-18T22:54:01.940Z,9.77
2022-10-18T22:56:28.743Z,9.96
2022-10-18T22:58:55.395Z,9.97
2022-10-18T23:01:23.658Z,10.00
2022-10-18T23:04:00.026Z,10.13
2022-10-18T23:06:29.011Z,10.14
2022-10-18T23:08:57.506Z,10.08
2022-10-18T23:11:26.197Z,10.17
2022-10-18T23:13:53.429Z,10.04
2022-10-18T23:16:20.577Z,10.03
2022-10-18T23:18:55.456Z,10.03
2022-10-18T23:21:24.613Z,10.03
2022-10-18T23:23:52.367Z,10.02
2022-10-18T23:26:24.730Z,9.98
2022-10-18T23:28:52.596Z,9.95
2022-10-18T23:31:25.335Z,9.82
2022-10-18T23:33:54.611Z,9.67
2022-10-18T23:36:22.448Z,9.62
2022-10-18T23:38:49.475Z,9.65
2022-10-18T23:41:16.811Z,9.66
2022-10-18T23:43:43.926Z,9.67
2022-10-18T23:46:11.245Z,9.65
2022-10-18T23:48:38.225Z,9.56
2022-10-18T23:51:05.727Z,9.46
2022-10-18T23:53:32.864Z,9.48
2022-10-18T23:56:02.351Z,9.50
2022-10-18T23:58:31.335Z,9.58
